createdAt,value
2022-11-29T00:02:44.782Z,66.22
2022-11-29T00:05:32.037Z,63.95
2022-11-29T00:08:20.551Z,75.03
2022-11-29T00:11:08.544Z,52.47
2022-11-29T00:13:55.799Z,60.80
2022-11-29T00:16:43.357Z,63.55
2022-11-29T00:19:30.958Z,53.30
2022-11-29T00:22:17.971Z,51.17
2022-11-29T00:25:07.264Z,54.05
2022-11-29T00:27:54.446Z,48.92
2022-11-29T00:30:41.662Z,47.00
2022-11-29T00:33:29.150Z,58.95
2022-11-29T00:36:16.247Z,48.92
2022-11-29T00:39:03.459Z,47.15
2022-11-29T00:41:52.267Z,63.22
2022-11-29T00:44:39.556Z,49.75
2022-11-29T00:47:26.560Z,74.10
2022-11-29T00:50:13.978Z,58.88
2022-11-29T00:53:01.235Z,64.43
2022-11-29T00:55:49.159Z,59.42
2022-11-29T00:58:38.012Z,61.65
2022-11-29T01:01:25.172Z,57.55
2022-11-29T01:04:12.195Z,56.00
2022-11-29T01:06:59.411Z,67.95
2022-11-29T01:09:46.764Z,55.50
2022-11-29T01:12:36.112Z,99.68
2022-11-29T01:15:26.937Z,53.65
2022-11-29T01:18:16.686Z,65.93
2022-11-29T01:21:06.468Z,71.47
2022-11-29T01:23:56.115Z,59.72
2022-11-29T01:26:45.154Z,95.78
2022-11-29T01:29:34.904Z,53.38
2022-11-29T01:32:25.733Z,60.92
2022-11-29T01:35:15.495Z,57.70
2022-11-29T01:38:04.764Z,71.55
2022-11-29T01:41:05.109Z,84.60
2022-11-29T01:43:56.953Z,85.20
2022-11-29T01:46:47.137Z,83.05
2022-11-29T01:49:39.463Z,97.18
2022-11-29T01:52:30.236Z,126.05
2022-11-29T01:55:20.379Z,92.70
2022-11-29T01:58:10.960Z,99.88
2022-11-29T02:01:01.368Z,66.80
2022-11-29T02:03:50.721Z,107.43
2022-11-29T02:06:41.321Z,62.63
2022-11-29T02:09:30.765Z,59.95
2022-11-29T02:12:25.447Z,86.72
2022-11-29T02:18:07.244Z,74.65
2022-11-29T02:21:05.969Z,97.38
2022-11-29T02:24:07.214Z,130.02
2022-11-29T02:27:13.335Z,91.72
2022-11-29T02:30:07.791Z,66.60
2022-11-29T02:35:54.591Z,66.93
2022-11-29T02:38:49.998Z,73.93
2022-11-29T02:41:45.391Z,75.90
2022-11-29T02:44:47.864Z,68.03
2022-11-29T02:47:42.050Z,49.63
2022-11-29T02:50:36.144Z,65.88
2022-11-29T02:53:29.247Z,122.18
2022-11-29T02:56:21.969Z,50.05
2022-11-29T02:59:12.416Z,53.35
2022-11-29T03:02:03.483Z,65.28
2022-11-29T03:04:53.468Z,124.28
2022-11-29T03:07:44.094Z,53.35
2022-11-29T03:10:36.357Z,63.28
2022-11-29T03:13:28.950Z,68.85
2022-11-29T03:16:22.747Z,41.30
2022-11-29T03:19:17.397Z,31.80
2022-11-29T03:24:56.003Z,37.88
2022-11-29T03:27:49.203Z,44.67
2022-11-29T03:30:38.629Z,62.13
2022-11-29T03:33:28.035Z,41.78
2022-11-29T03:36:21.690Z,33.67
2022-11-29T03:39:11.876Z,31.37
2022-11-29T03:42:01.200Z,46.03
2022-11-29T03:44:52.347Z,66.03
2022-11-29T03:47:43.200Z,67.60
2022-11-29T03:50:33.759Z,31.88
2022-11-29T03:53:23.978Z,33.85
2022-11-29T03:56:24.645Z,52.63
2022-11-29T03:59:13.988Z,39.75
2022-11-29T04:02:19.981Z,29.70
2022-11-29T04:05:26.462Z,27.73
2022-11-29T04:08:28.371Z,38.40
2022-11-29T04:11:24.444Z,44.40
2022-11-29T04:14:20.728Z,37.80
2022-11-29T04:17:23.529Z,53.08
2022-11-29T04:20:24.367Z,48.28
2022-11-29T04:23:22.659Z,41.00
2022-11-29T04:26:33.569Z,61.33
2022-11-29T04:29:40.613Z,68.45
2022-11-29T04:32:42.340Z,38.70
2022-11-29T04:35:33.688Z,64.75
2022-11-29T04:38:30.951Z,38.55
2022-11-29T04:41:30.954Z,58.30
2022-11-29T04:44:24.433Z,44.03
2022-11-29T04:47:24.615Z,92.18
2022-11-29T04:50:21.254Z,44.45
2022-11-29T04:53:25.590Z,30.65
2022-11-29T04:56:19.093Z,39.10
2022-11-29T04:59:09.039Z,37.80
2022-11-29T05:02:01.853Z,67.32
2022-11-29T05:04:53.063Z,33.40
2022-11-29T05:07:43.958Z,46.75
2022-11-29T05:10:36.646Z,34.75
2022-11-29T05:13:30.099Z,41.53
2022-11-29T05:16:23.860Z,31.80
2022-11-29T05:19:20.531Z,38.65
2022-11-29T05:22:14.501Z,25.42
2022-11-29T05:25:20.681Z,27.65
2022-11-29T05:28:10.858Z,35.67
2022-11-29T05:31:26.154Z,38.40
2022-11-29T05:34:22.952Z,29.33
2022-11-29T05:37:16.747Z,25.77
2022-11-29T05:40:12.652Z,29.13
2022-11-29T05:43:12.900Z,29.25
2022-11-29T05:46:04.209Z,24.63
2022-11-29T05:48:58.040Z,31.48
2022-11-29T05:51:47.978Z,27.52
2022-11-29T05:54:37.402Z,28.67
2022-11-29T05:57:29.188Z,30.25
2022-11-29T06:00:17.354Z,28.13
2022-11-29T06:03:08.700Z,33.00
2022-11-29T06:06:00.634Z,32.63
2022-11-29T06:08:49.967Z,37.33
2022-11-29T06:11:40.145Z,44.95
2022-11-29T06:14:37.388Z,42.47
2022-11-29T06:17:39.630Z,37.38
2022-11-29T06:20:31.810Z,39.10
2022-11-29T06:23:29.025Z,39.78
2022-11-29T06:26:24.360Z,44.15
2022-11-29T06:29:22.168Z,81.43
2022-11-29T06:32:14.368Z,52.28
2022-11-29T06:35:04.390Z,61.47
2022-11-29T06:37:52.899Z,50.42
2022-11-29T06:40:41.639Z,58.88
2022-11-29T06:43:29.220Z,90.00
2022-11-29T06:46:21.910Z,139.07
2022-11-29T06:49:11.186Z,55.55
2022-11-29T06:52:04.406Z,71.03
2022-11-29T06:55:01.376Z,94.82
2022-11-29T06:57:55.135Z,63.50
2022-11-29T07:00:44.827Z,69.07
2022-11-29T07:03:39.355Z,68.82
2022-11-29T07:06:28.121Z,69.70
2022-11-29T07:09:16.254Z,64.22
2022-11-29T07:12:03.474Z,57.88
2022-11-29T07:14:52.154Z,67.70
2022-11-29T07:17:44.690Z,59.13
2022-11-29T07:20:36.335Z,58.72
2022-11-29T07:23:26.239Z,52.40
2022-11-29T07:26:18.145Z,54.45
2022-11-29T07:29:12.304Z,58.63
2022-11-29T07:32:04.407Z,65.82
2022-11-29T07:34:55.336Z,66.40
2022-11-29T07:37:50.979Z,59.95
2022-11-29T07:40:42.189Z,52.35
2022-11-29T07:43:36.023Z,65.20
2022-11-29T07:46:23.946Z,55.38
2022-11-29T07:49:12.933Z,63.90
2022-11-29T07:52:00.109Z,63.92
2022-11-29T07:54:48.336Z,65.00
2022-11-29T07:57:36.986Z,65.97
2022-11-29T08:00:26.198Z,65.95
2022-11-29T08:03:13.604Z,61.28
2022-11-29T08:06:02.174Z,60.05
2022-11-29T08:08:49.392Z,58.20
2022-11-29T08:11:36.672Z,57.20
2022-11-29T08:14:24.513Z,46.78
2022-11-29T08:17:11.766Z,45.08
2022-11-29T08:20:03.886Z,48.55
2022-11-29T08:22:56.701Z,56.53
2022-11-29T08:25:43.689Z,68.10
2022-11-29T08:28:30.956Z,53.53
2022-11-29T08:31:18.227Z,54.85
2022-11-29T08:34:06.255Z,54.08
2022-11-29T08:36:55.815Z,48.80
2022-11-29T08:39:44.435Z,58.60
2022-11-29T08:42:31.782Z,60.63
2022-11-29T08:45:18.924Z,55.55
2022-11-29T08:48:06.703Z,64.53
2022-11-29T08:50:54.529Z,63.55
2022-11-29T08:53:46.100Z,63.78
2022-11-29T08:57:31.112Z,63.10
2022-11-29T08:59:44.905Z,61.55
2022-11-29T09:02:31.887Z,64.20
2022-11-29T09:05:19.108Z,51.30
2022-11-29T09:08:06.467Z,50.38
2022-11-29T09:10:53.722Z,55.15
2022-11-29T09:13:43.097Z,60.90
2022-11-29T09:16:31.590Z,55.72
2022-11-29T09:19:19.063Z,55.55
2022-11-29T09:22:06.538Z,54.72
2022-11-29T09:24:53.885Z,63.03
2022-11-29T09:27:42.060Z,53.20
2022-11-29T09:30:31.747Z,61.67
2022-11-29T09:33:18.882Z,61.72
2022-11-29T09:36:06.951Z,65.88
2022-11-29T09:38:54.340Z,58.28
2022-11-29T09:41:48.943Z,59.42
2022-11-29T09:44:40.234Z,60.90
2022-11-29T09:47:38.308Z,56.00
2022-11-29T09:50:29.446Z,58.20
2022-11-29T09:53:26.541Z,54.00
2022-11-29T09:56:19.074Z,61.60
2022-11-29T09:59:10.531Z,59.47
2022-11-29T10:02:00.769Z,59.63
2022-11-29T10:04:52.010Z,62.05
2022-11-29T10:07:40.826Z,69.00
2022-11-29T10:10:30.635Z,52.28
2022-11-29T10:13:20.206Z,64.65
2022-11-29T10:16:13.232Z,55.30
2022-11-29T10:19:03.170Z,61.78
2022-11-29T10:21:55.387Z,64.25
2022-11-29T10:24:44.438Z,56.13
2022-11-29T10:27:31.849Z,68.80
2022-11-29T10:30:19.767Z,58.42
2022-11-29T10:33:14.518Z,62.63
2022-11-29T10:36:05.124Z,71.30
2022-11-29T10:38:55.015Z,56.78
2022-11-29T10:41:42.179Z,61.28
2022-11-29T10:44:29.989Z,59.17
2022-11-29T10:47:17.077Z,55.70
2022-11-29T10:50:04.420Z,61.17
2022-11-29T10:52:55.819Z,60.88
2022-11-29T10:58:34.263Z,62.92
2022-11-29T11:01:21.523Z,62.75
2022-11-29T11:04:10.910Z,64.63
2022-11-29T11:07:01.119Z,57.50
2022-11-29T11:09:49.772Z,54.05
2022-11-29T11:12:37.188Z,62.08
2022-11-29T11:15:29.665Z,58.45
2022-11-29T11:18:20.921Z,61.50
2022-11-29T11:21:10.622Z,55.33
2022-11-29T11:23:58.802Z,55.33
2022-11-29T11:26:46.624Z,57.65
2022-11-29T11:29:37.038Z,63.40
2022-11-29T11:32:25.816Z,52.00
2022-11-29T11:35:23.359Z,59.45
2022-11-29T11:38:15.962Z,60.17
2022-11-29T11:41:04.884Z,65.28
2022-11-29T11:43:53.747Z,55.80
2022-11-29T11:46:48.063Z,58.75
2022-11-29T11:49:39.071Z,58.33
2022-11-29T11:52:27.199Z,56.60
2022-11-29T11:55:25.698Z,56.08
2022-11-29T11:58:17.382Z,68.30
2022-11-29T12:01:15.428Z,66.78
2022-11-29T12:04:04.614Z,56.00
2022-11-29T12:06:53.882Z,63.78
2022-11-29T12:09:43.352Z,61.25
2022-11-29T12:12:32.080Z,63.83
2022-11-29T12:15:20.376Z,60.78
2022-11-29T12:18:12.343Z,61.00
2022-11-29T12:21:01.268Z,59.88
2022-11-29T12:23:53.671Z,53.42
2022-11-29T12:26:57.059Z,66.53
2022-11-29T12:29:44.924Z,78.00
2022-11-29T12:32:40.940Z,85.03
2022-11-29T12:35:38.889Z,74.22
2022-11-29T12:38:31.521Z,78.93
2022-11-29T12:41:27.107Z,98.10
2022-11-29T12:44:19.191Z,70.20
2022-11-29T12:47:35.034Z,79.72
2022-11-29T12:50:27.926Z,96.90
2022-11-29T12:53:27.092Z,109.45
2022-11-29T12:56:16.433Z,96.93
2022-11-29T12:59:16.255Z,106.90
2022-11-29T13:02:12.485Z,81.90
2022-11-29T13:05:02.783Z,101.30
2022-11-29T13:07:55.977Z,96.65
2022-11-29T13:10:53.347Z,82.67
2022-11-29T13:13:41.482Z,72.53
2022-11-29T13:16:34.898Z,83.55
2022-11-29T13:19:25.240Z,65.25
2022-11-29T13:22:17.168Z,63.45
2022-11-29T13:25:05.693Z,69.97
2022-11-29T13:27:56.910Z,68.97
2022-11-29T13:30:43.872Z,67.57
2022-11-29T13:33:34.434Z,71.88
2022-11-29T13:36:24.993Z,71.63
2022-11-29T13:39:17.306Z,75.63
2022-11-29T13:42:06.571Z,68.68
2022-11-29T13:44:58.033Z,82.30
2022-11-29T13:47:49.243Z,83.95
2022-11-29T13:50:39.331Z,97.40
2022-11-29T13:53:27.142Z,93.10
2022-11-29T13:56:26.895Z,101.13
2022-11-29T13:59:18.363Z,97.05
2022-11-29T14:02:06.354Z,86.13
2022-11-29T14:04:53.376Z,98.05
2022-11-29T14:08:05.744Z,100.07
2022-11-29T14:10:53.158Z,100.20
2022-11-29T14:13:48.234Z,87.13
2022-11-29T14:16:39.124Z,104.53
2022-11-29T14:19:32.800Z,110.05
2022-11-29T14:22:22.033Z,102.38
2022-11-29T14:25:50.549Z,95.00
2022-11-29T14:31:40.271Z,96.70
2022-11-29T14:34:34.020Z,96.78
2022-11-29T14:37:26.505Z,90.83
2022-11-29T14:40:19.679Z,85.47
2022-11-29T14:43:16.994Z,97.93
2022-11-29T14:46:08.373Z,92.70
2022-11-29T14:49:00.744Z,101.28
2022-11-29T14:52:06.169Z,89.72
2022-11-29T14:54:56.281Z,88.10
2022-11-29T14:58:06.023Z,87.28
2022-11-29T15:01:03.834Z,92.38
2022-11-29T15:03:52.778Z,84.68
2022-11-29T15:06:46.204Z,95.07
2022-11-29T15:09:37.790Z,82.32
2022-11-29T15:12:27.134Z,85.53
2022-11-29T15:15:22.599Z,89.47
2022-11-29T15:18:19.856Z,74.30
2022-11-29T15:21:14.675Z,97.63
2022-11-29T15:24:03.784Z,91.47
2022-11-29T15:26:58.079Z,88.65
2022-11-29T15:29:48.250Z,91.25
2022-11-29T15:32:35.348Z,95.30
2022-11-29T15:35:24.281Z,102.30
2022-11-29T15:38:18.064Z,85.85
2022-11-29T15:41:05.198Z,91.45
2022-11-29T15:43:54.363Z,83.53
2022-11-29T15:46:41.408Z,89.43
2022-11-29T15:49:30.711Z,81.20
2022-11-29T15:52:21.012Z,84.03
2022-11-29T15:55:11.260Z,80.15
2022-11-29T15:58:05.372Z,73.28
2022-11-29T16:00:55.987Z,81.20
2022-11-29T16:03:46.364Z,73.30
2022-11-29T16:06:37.308Z,91.28
2022-11-29T16:09:29.791Z,83.30
2022-11-29T16:12:18.323Z,73.10
2022-11-29T16:15:06.180Z,89.20
2022-11-29T16:17:53.308Z,90.03
2022-11-29T16:20:40.752Z,94.25
2022-11-29T16:23:33.650Z,101.60
2022-11-29T16:26:24.085Z,80.63
2022-11-29T16:29:21.189Z,92.32
2022-11-29T16:32:16.429Z,79.80
2022-11-29T16:35:07.312Z,80.40
2022-11-29T16:37:54.772Z,94.80
2022-11-29T16:40:42.161Z,82.88
2022-11-29T16:43:44.191Z,85.20
2022-11-29T16:46:40.145Z,87.95
2022-11-29T16:49:31.926Z,87.30
2022-11-29T16:52:24.975Z,79.03
2022-11-29T16:55:11.943Z,81.72
2022-11-29T16:57:59.192Z,81.95
2022-11-29T17:00:46.430Z,87.47
2022-11-29T17:03:35.110Z,94.93
2022-11-29T17:06:23.396Z,91.32
2022-11-29T17:09:12.404Z,103.65
2022-11-29T17:12:01.024Z,85.53
2022-11-29T17:14:48.434Z,85.63
2022-11-29T17:17:35.886Z,85.47
2022-11-29T17:20:24.172Z,86.63
2022-11-29T17:23:11.727Z,88.50
2022-11-29T17:25:59.264Z,86.95
2022-11-29T17:28:47.342Z,92.80
2022-11-29T17:31:34.454Z,79.53
2022-11-29T17:34:21.714Z,84.05
2022-11-29T17:37:10.607Z,92.30
2022-11-29T17:39:58.039Z,82.75
2022-11-29T17:42:45.191Z,85.97
2022-11-29T17:45:32.474Z,76.10
2022-11-29T17:48:19.981Z,91.43
2022-11-29T17:51:28.876Z,92.65
2022-11-29T17:54:16.245Z,95.50
2022-11-29T17:57:04.632Z,89.82
2022-11-29T17:59:51.919Z,90.97
2022-11-29T18:02:39.108Z,96.03
2022-11-29T18:05:28.983Z,93.53
2022-11-29T18:08:19.943Z,85.55
2022-11-29T18:11:10.106Z,94.15
2022-11-29T18:13:58.278Z,90.40
2022-11-29T18:16:46.076Z,91.43
2022-11-29T18:19:33.041Z,84.90
2022-11-29T18:22:20.403Z,83.22
2022-11-29T18:25:36.992Z,86.72
2022-11-29T18:28:16.604Z,90.57
2022-11-29T18:31:07.605Z,84.25
2022-11-29T18:33:55.584Z,87.97
2022-11-29T18:36:44.260Z,78.75
2022-11-29T18:39:31.334Z,91.72
2022-11-29T18:42:18.707Z,86.55
2022-11-29T18:45:08.808Z,87.72
2022-11-29T18:47:56.192Z,84.05
2022-11-29T18:50:43.575Z,75.93
2022-11-29T18:53:31.047Z,75.80
2022-11-29T18:56:19.096Z,81.47
2022-11-29T18:59:07.203Z,83.25
2022-11-29T19:01:56.791Z,78.25
2022-11-29T19:04:44.621Z,81.30
2022-11-29T19:07:33.052Z,78.18
2022-11-29T19:10:20.326Z,74.95
2022-11-29T19:13:07.413Z,76.30
2022-11-29T19:15:55.324Z,78.18
2022-11-29T19:18:44.954Z,79.78
2022-11-29T19:21:34.235Z,73.50
2022-11-29T19:24:21.583Z,80.18
2022-11-29T19:27:08.763Z,87.25
2022-11-29T19:29:56.156Z,86.68
2022-11-29T19:32:43.844Z,86.07
2022-11-29T19:35:32.451Z,83.28
2022-11-29T19:38:19.955Z,71.28
2022-11-29T19:41:08.803Z,70.13
2022-11-29T19:43:56.908Z,74.43
2022-11-29T19:46:45.720Z,63.75
2022-11-29T19:49:32.720Z,66.43
2022-11-29T19:52:21.391Z,60.70
2022-11-29T19:55:08.986Z,73.25
2022-11-29T19:57:56.445Z,71.90
2022-11-29T20:00:43.784Z,60.65
2022-11-29T20:03:31.199Z,67.97
2022-11-29T20:06:18.848Z,63.92
2022-11-29T20:09:07.688Z,66.60
2022-11-29T20:11:54.915Z,59.08
2022-11-29T20:14:42.448Z,60.97
2022-11-29T20:17:29.923Z,62.08
2022-11-29T20:20:17.313Z,58.22
2022-11-29T20:23:04.803Z,65.35
2022-11-29T20:25:54.528Z,68.90
2022-11-29T20:28:41.675Z,65.80
2022-11-29T20:31:29.353Z,80.43
2022-11-29T20:34:16.717Z,89.97
2022-11-29T20:37:10.861Z,80.13
2022-11-29T20:39:59.396Z,69.38
2022-11-29T20:42:51.448Z,67.97
2022-11-29T20:45:38.876Z,75.03
2022-11-29T20:48:26.267Z,71.15
2022-11-29T20:51:13.930Z,71.03
2022-11-29T20:54:01.309Z,69.57
2022-11-29T20:56:48.673Z,67.80
2022-11-29T20:59:37.375Z,79.57
2022-11-29T21:02:24.859Z,74.93
2022-11-29T21:05:11.915Z,70.35
2022-11-29T21:07:59.091Z,71.65
2022-11-29T21:10:46.754Z,76.05
2022-11-29T21:13:34.513Z,79.60
2022-11-29T21:16:29.559Z,76.35
2022-11-29T21:19:19.795Z,71.82
2022-11-29T21:22:13.775Z,67.68
2022-11-29T21:25:04.532Z,73.35
2022-11-29T21:27:51.707Z,69.80
2022-11-29T21:30:39.188Z,73.85
2022-11-29T21:33:27.811Z,65.63
2022-11-29T21:36:15.028Z,73.05
2022-11-29T21:39:05.123Z,61.78
2022-11-29T21:41:52.464Z,66.35
2022-11-29T21:44:39.832Z,64.75
2022-11-29T21:47:27.303Z,57.83
2022-11-29T21:50:16.091Z,51.45
2022-11-29T21:53:03.371Z,59.75
2022-11-29T21:55:56.228Z,68.60
2022-11-29T21:58:43.394Z,59.53
2022-11-29T22:01:30.684Z,48.08
2022-11-29T22:04:17.711Z,48.92
2022-11-29T22:07:06.383Z,56.38
2022-11-29T22:09:53.656Z,52.88
2022-11-29T22:12:51.374Z,40.92
2022-11-29T22:15:38.723Z,45.28
2022-11-29T22:18:28.380Z,46.22
2022-11-29T22:21:15.557Z,37.50
2022-11-29T22:24:04.117Z,50.17
2022-11-29T22:26:52.243Z,43.25
2022-11-29T22:29:39.349Z,47.17
2022-11-29T22:32:26.732Z,38.03
2022-11-29T22:35:14.037Z,35.35
2022-11-29T22:38:01.176Z,51.38
2022-11-29T22:40:49.860Z,57.72
2022-11-29T22:43:37.441Z,58.30
2022-11-29T22:46:25.616Z,57.03
2022-11-29T22:49:12.790Z,55.58
2022-11-29T22:52:00.316Z,63.15
2022-11-29T22:54:47.743Z,54.88
2022-11-29T22:57:36.702Z,100.55
2022-11-29T23:00:24.041Z,71.57
2022-11-29T23:03:11.467Z,63.47
2022-11-29T23:06:03.032Z,64.68
2022-11-29T23:08:50.354Z,98.28
2022-11-29T23:11:37.402Z,104.03
2022-11-29T23:14:26.468Z,69.68
2022-11-29T23:17:13.622Z,66.50
2022-11-29T23:20:00.757Z,75.35
2022-11-29T23:22:47.978Z,69.45
2022-11-29T23:25:35.194Z,67.88
2022-11-29T23:28:22.343Z,70.80
2022-11-29T23:31:11.056Z,75.80
2022-11-29T23:33:58.263Z,76.78
2022-11-29T23:36:49.795Z,75.15
2022-11-29T23:42:26.437Z,75.30
2022-11-29T23:45:13.763Z,69.53
2022-11-29T23:48:02.439Z,82.97
2022-11-29T23:50:49.722Z,88.60
2022-11-29T23:53:36.995Z,112.07
2022-11-29T23:56:24.355Z,77.03
2022-11-29T23:59:11.794Z,82.70
